Terminal Aerodrome Forecast
Issued by NWS

Home | Current Version | Previous Version | Text Only | Print | Product List | Glossary On
Versions: 1 2 3 4 5 6 7 8 9 10 11 12 13 14 15 16 17 18 19 20 21 22 23 24 25
000
FTUS43 KDLH 021100 RRA
TAFHIB
TAF
KHIB 021144Z 0212/0312 27003KT P6SM SKC
     FM022000 20008KT P6SM SCT250
     FM030300 18010KT P6SM BKN080
     FM030700 19012KT 5SM -SN BKN025 OVC040
     FM030900 19008KT 4SM -SN OVC015=

USA.gov is the U.S. government's official web portal to all federal, state and local government web resources and services.